Portada
METAR-TAF:

METAR-TAF

Aeropuertos :

Aeropuerto de Gran Canaria

Gran Canaria, España

latitud: 27-56N, longitud: 015-23W, altitud: 23 m

Observación

El informe se hizo hace 30 minutos, a las 16:30 UTC
Viento 21 kt del norte-noreste
Temperatura 20°C
Humedad 73%
Presión 1025 hPa
Visibilidad 10 km o más
Escasas nubes a una altura de 2000 ft
Cielo nuboso a una altura de 3200 ft

METAR: GCLP 111630Z 02021KT 9999 FEW020 BKN032 20/15 Q1025 NOSIG

Hora: 17:00 (17:00 UTC)

Pronóstico

El informe se hizo hace 3 horas y 0 minutos, a las 14:00 UTC
Pronóstico válido del 11 a las 15 UTC al 12 a las 15 UTC
Viento 19 kt del norte-noreste
Visibilidad 10 km o más
Nubes dispersas a una altura de 3000 ft

TAF: GCLP 111400Z 1115/1215 02019KT 9999 SCT030 TX21/1214Z TN17/1206Z

Observaciones y pronósticos meteorológicos de más de 4000 aeropuertos (mensajes METAR y TAF).

Los puntos amarillos y rojos representan las estaciones disponibles.

Ponga el ratón en el punto deseado para ver el nombre de la estación.

Haga clic para ver las observaciones y los pronósticos meteorológicos.

Para cambiar el mapa : haga clic en los botones verdes con una cruz de color negro para hacer un zoom, en el botón verde con un guión para alejar o en las flechas verdes para mapas adyacentes.


METAR-TAF: